Charlack, Missouri
Current Conditions -  °F | °C
As of 12:51 AM on Wednesday 22 Oct 2014 (Local Time) from KSTL Reporting Station
Clear Clear  
Wind Chill: 10°   Ceiling: Unl
Heat Index: 10°   Visibility: 10mi
Dew Point:   Wind: 8mph
Humidity: 68%   Direction: 90°E
Pressure: 30.22"   Gusts: NA
Location:  38.702°N, 90.3628°W
Report Text: KSTL 220551Z 09007KT 10SM CLR 10/04 A3022 RMK AO2 SLP229 T01000044 10167 20100 402000089 53007
Loading
Personal Weather Stations






























Interactive Weather Map
Tropical Storm Tracking
New forecast layout! Learn more

10-Day Weather Forecast

Advertisements
Track Severe Weather on mobile